sensor_id;sensor_type;location;lat;lon;timestamp;pressure;altitude;pressure_sealevel;temperature;humidity
11856;BME280;5987;53.140;8.904;2023-04-01T00:02:13;99418.28;;;8.57;100.00
11856;BME280;5987;53.140;8.904;2023-04-01T00:05:17;99409.50;;;8.58;100.00
11856;BME280;5987;53.140;8.904;2023-04-01T00:08:21;99407.72;;;8.58;100.00
11856;BME280;5987;53.140;8.904;2023-04-01T00:11:26;99408.72;;;8.56;100.00
11856;BME280;5987;53.140;8.904;2023-04-01T00:14:30;99408.72;;;8.56;100.00
11856;BME280;5987;53.140;8.904;2023-04-01T00:17:34;99407.88;;;8.55;100.00
11856;BME280;5987;53.140;8.904;2023-04-01T00:20:38;99401.88;;;8.53;100.00
11856;BME280;5987;53.140;8.904;2023-04-01T00:23:42;99413.22;;;8.54;100.00
11856;BME280;5987;53.140;8.904;2023-04-01T00:26:47;99405.34;;;8.54;100.00
11856;BME280;5987;53.140;8.904;2023-04-01T00:29:51;99406.97;;;8.56;100.00
11856;BME280;5987;53.140;8.904;2023-04-01T00:32:54;99403.56;;;8.54;100.00
11856;BME280;5987;53.140;8.904;2023-04-01T00:36:07;99409.63;;;8.55;100.00
11856;BME280;5987;53.140;8.904;2023-04-01T00:39:12;99407.03;;;8.55;100.00
11856;BME280;5987;53.140;8.904;2023-04-01T00:42:17;99401.78;;;8.55;100.00
11856;BME280;5987;53.140;8.904;2023-04-01T00:45:33;99407.66;;;8.60;100.00
11856;BME280;5987;53.140;8.904;2023-04-01T00:48:41;99402.66;;;8.55;100.00
11856;BME280;5987;53.140;8.904;2023-04-01T00:51:50;99399.78;;;8.60;100.00
11856;BME280;5987;53.140;8.904;2023-04-01T00:54:59;99399.78;;;8.60;100.00
11856;BME280;5987;53.140;8.904;2023-04-01T00:58:09;99398.34;;;8.54;100.00
11856;BME280;5987;53.140;8.904;2023-04-01T01:01:15;99405.94;;;8.59;100.00
11856;BME280;5987;53.140;8.904;2023-04-01T01:04:23;99408.81;;;8.54;100.00
11856;BME280;5987;53.140;8.904;2023-04-01T01:07:39;99406.88;;;8.58;100.00
11856;BME280;5987;53.140;8.904;2023-04-01T01:10:50;99406.88;;;8.58;100.00
11856;BME280;5987;53.140;8.904;2023-04-01T01:14:03;99408.72;;;8.56;100.00
11856;BME280;5987;53.140;8.904;2023-04-01T01:17:17;99406.19;;;8.54;100.00
11856;BME280;5987;53.140;8.904;2023-04-01T01:20:53;99405.34;;;8.54;100.00
11856;BME280;5987;53.140;8.904;2023-04-01T01:24:29;99407.03;;;8.55;100.00
11856;BME280;5987;53.140;8.904;2023-04-01T01:27:49;99402.81;;;8.52;100.00
11856;BME280;5987;53.140;8.904;2023-04-01T01:31:03;99409.13;;;8.48;100.00
11856;BME280;5987;53.140;8.904;2023-04-01T01:34:20;99410.50;;;8.55;100.00
11856;BME280;5987;53.140;8.904;2023-04-01T01:37:30;99409.72;;;8.53;100.00
11856;BME280;5987;53.140;8.904;2023-04-01T01:40:36;99407.19;;;8.52;100.00
11856;BME280;5987;53.140;8.904;2023-04-01T01:43:47;99406.09;;;8.56;100.00
11856;BME280;5987;53.140;8.904;2023-04-01T01:46:52;99408.63;;;8.57;100.00
11856;BME280;5987;53.140;8.904;2023-04-01T01:49:56;99408.88;;;8.53;100.00
11856;BME280;5987;53.140;8.904;2023-04-01T01:53:04;99410.25;;;8.60;100.00
11856;BME280;5987;53.140;8.904;2023-04-01T01:56:10;99405.34;;;8.54;100.00
11856;BME280;5987;53.140;8.904;2023-04-01T01:59:20;99407.97;;;8.54;100.00
11856;BME280;5987;53.140;8.904;2023-04-01T02:02:26;99407.19;;;8.52;100.00
11856;BME280;5987;53.140;8.904;2023-04-01T02:05:34;99415.03;;;8.52;100.00
11856;BME280;5987;53.140;8.904;2023-04-01T02:08:43;99418.56;;;8.51;100.00
11856;BME280;5987;53.140;8.904;2023-04-01T02:11:52;99413.41;;;8.49;100.00
11856;BME280;5987;53.140;8.904;2023-04-01T02:15:03;99419.50;;;8.50;100.00
11856;BME280;5987;53.140;8.904;2023-04-01T02:18:10;99423.81;;;8.51;100.00
11856;BME280;5987;53.140;8.904;2023-04-01T02:21:16;99426.50;;;8.49;100.00
11856;BME280;5987;53.140;8.904;2023-04-01T02:24:25;99412.41;;;8.52;100.00
11856;BME280;5987;53.140;8.904;2023-04-01T02:27:30;99419.34;;;8.53;100.00
11856;BME280;5987;53.140;8.904;2023-04-01T02:30:38;99422.88;;;8.52;100.00
11856;BME280;5987;53.140;8.904;2023-04-01T02:33:44;99426.28;;;8.54;100.00
11856;BME280;5987;53.140;8.904;2023-04-01T02:36:49;99421.97;;;8.53;100.00
11856;BME280;5987;53.140;8.904;2023-04-01T02:39:58;99427.28;;;8.51;100.00
11856;BME280;5987;53.140;8.904;2023-04-01T02:43:02;99421.19;;;8.51;100.00
11856;BME280;5987;53.140;8.904;2023-04-01T02:46:06;99425.50;;;8.52;100.00
11856;BME280;5987;53.140;8.904;2023-04-01T02:49:10;99435.03;;;8.53;100.00
11856;BME280;5987;53.140;8.904;2023-04-01T02:52:16;99430.13;;;8.47;100.00
11856;BME280;5987;53.140;8.904;2023-04-01T02:55:21;99429.91;;;8.51;100.00
11856;BME280;5987;53.140;8.904;2023-04-01T02:58:24;99438.81;;;8.47;100.00
11856;BME280;5987;53.140;8.904;2023-04-01T03:01:28;99441.13;;;8.53;100.00
11856;BME280;5987;53.140;8.904;2023-04-01T03:04:32;99442.13;;;8.51;100.00
11856;BME280;5987;53.140;8.904;2023-04-01T03:07:37;99443.06;;;8.50;100.00
11856;BME280;5987;53.140;8.904;2023-04-01T03:10:42;99451.00;;;8.48;100.00
11856;BME280;5987;53.140;8.904;2023-04-01T03:13:45;99446.81;;;8.44;100.00
11856;BME280;5987;53.140;8.904;2023-04-01T03:16:49;99445.84;;;8.47;100.00
11856;BME280;5987;53.140;8.904;2023-04-01T03:19:52;99442.44;;;8.45;100.00
11856;BME280;5987;53.140;8.904;2023-04-01T03:22:56;99447.00;;;8.39;100.00
11856;BME280;5987;53.140;8.904;2023-04-01T03:26:01;99444.41;;;8.39;100.00
11856;BME280;5987;53.140;8.904;2023-04-01T03:29:05;99454.72;;;8.43;100.00
11856;BME280;5987;53.140;8.904;2023-04-01T03:32:08;99451.31;;;8.40;100.00
11856;BME280;5987;53.140;8.904;2023-04-01T03:35:13;99454.84;;;8.39;100.00
11856;BME280;5987;53.140;8.904;2023-04-01T03:38:16;99458.50;;;8.37;100.00
11856;BME280;5987;53.140;8.904;2023-04-01T03:41:21;99454.84;;;8.39;100.00
11856;BME280;5987;53.140;8.904;2023-04-01T03:44:25;99461.88;;;8.39;100.00
11856;BME280;5987;53.140;8.904;2023-04-01T03:47:28;99465.47;;;8.36;100.00
11856;BME280;5987;53.140;8.904;2023-04-01T03:50:34;99463.72;;;8.37;100.00
11856;BME280;5987;53.140;8.904;2023-04-01T03:53:38;99456.72;;;8.37;100.00
11856;BME280;5987;53.140;8.904;2023-04-01T03:56:43;99474.22;;;8.35;100.00
11856;BME280;5987;53.140;8.904;2023-04-01T03:59:47;99468.31;;;8.32;100.00
11856;BME280;5987;53.140;8.904;2023-04-01T04:02:51;99474.56;;;8.29;100.00
11856;BME280;5987;53.140;8.904;2023-04-01T04:05:54;99467.34;;;8.34;100.00
11856;BME280;5987;53.140;8.904;2023-04-01T04:08:59;99471.03;;;8.30;100.00
11856;BME280;5987;53.140;8.904;2023-04-01T04:12:04;99474.47;;;8.31;100.00
11856;BME280;5987;53.140;8.904;2023-04-01T04:15:09;99467.50;;;8.31;100.00
11856;BME280;5987;53.140;8.904;2023-04-01T04:18:12;99474.47;;;8.31;100.00
11856;BME280;5987;53.140;8.904;2023-04-01T04:21:16;99481.16;;;8.36;100.00
11856;BME280;5987;53.140;8.904;2023-04-01T04:24:20;99490.94;;;8.33;100.00
11856;BME280;5987;53.140;8.904;2023-04-01T04:27:25;99482.41;;;8.29;100.00
11856;BME280;5987;53.140;8.904;2023-04-01T04:30:28;99487.63;;;8.29;100.00
11856;BME280;5987;53.140;8.904;2023-04-01T04:33:32;99492.84;;;8.29;100.00
11856;BME280;5987;53.140;8.904;2023-04-01T04:36:36;99499.00;;;8.28;100.00
11856;BME280;5987;53.140;8.904;2023-04-01T04:39:39;99498.09;;;8.29;100.00
11856;BME280;5987;53.140;8.904;2023-04-01T04:42:44;99500.03;;;8.26;100.00
11856;BME280;5987;53.140;8.904;2023-04-01T04:45:48;99504.38;;;8.25;100.00
11856;BME280;5987;53.140;8.904;2023-04-01T04:48:52;99502.56;;;8.27;100.00
11856;BME280;5987;53.140;8.904;2023-04-01T04:51:55;99508.84;;;8.23;100.00
11856;BME280;5987;53.140;8.904;2023-04-01T04:54:59;99512.06;;;8.28;100.00
11856;BME280;5987;53.140;8.904;2023-04-01T04:58:04;99514.69;;;8.28;100.00
11856;BME280;5987;53.140;8.904;2023-04-01T05:01:09;99514.09;;;8.23;100.00
11856;BME280;5987;53.140;8.904;2023-04-01T05:04:13;99513.28;;;8.21;100.00
11856;BME280;5987;53.140;8.904;2023-04-01T05:07:17;99520.38;;;8.19;100.00
11856;BME280;5987;53.140;8.904;2023-04-01T05:10:20;99530.69;;;8.22;100.00
11856;BME280;5987;53.140;8.904;2023-04-01T05:13:25;99523.59;;;8.24;100.00
11856;BME280;5987;53.140;8.904;2023-04-01T05:16:29;99530.69;;;8.22;100.00
11856;BME280;5987;53.140;8.904;2023-04-01T05:19:33;99523.91;;;8.18;100.00
11856;BME280;5987;53.140;8.904;2023-04-01T05:22:37;99538.69;;;8.19;100.00
11856;BME280;5987;53.140;8.904;2023-04-01T05:25:40;99530.63;;;8.23;100.00
11856;BME280;5987;53.140;8.904;2023-04-01T05:28:46;99537.47;;;8.26;100.00
11856;BME280;5987;53.140;8.904;2023-04-01T05:31:49;99538.47;;;8.23;100.00
11856;BME280;5987;53.140;8.904;2023-04-01T05:34:54;99540.38;;;8.20;100.00
11856;BME280;5987;53.140;8.904;2023-04-01T05:37:57;99542.13;;;8.19;100.00
11856;BME280;5987;53.140;8.904;2023-04-01T05:41:02;99547.50;;;8.16;100.00
11856;BME280;5987;53.140;8.904;2023-04-01T05:44:10;99550.78;;;8.21;100.00
11856;BME280;5987;53.140;8.904;2023-04-01T05:47:15;99543.00;;;8.20;100.00
11856;BME280;5987;53.140;8.904;2023-04-01T05:50:18;99547.22;;;8.22;100.00
11856;BME280;5987;53.140;8.904;2023-04-01T05:53:22;99550.06;;;8.18;100.00
11856;BME280;5987;53.140;8.904;2023-04-01T05:56:26;99556.06;;;8.20;100.00
11856;BME280;5987;53.140;8.904;2023-04-01T05:59:30;99563.84;;;8.21;100.00
11856;BME280;5987;53.140;8.904;2023-04-01T06:02:34;99558.31;;;8.28;100.00
11856;BME280;5987;53.140;8.904;2023-04-01T06:05:42;99563.16;;;8.35;100.00
11856;BME280;5987;53.140;8.904;2023-04-01T06:08:46;99571.94;;;8.34;100.00
11856;BME280;5987;53.140;8.904;2023-04-01T06:12:16;99566.88;;;8.31;100.00
11856;BME280;5987;53.140;8.904;2023-04-01T06:15:37;99571.78;;;8.37;100.00
11856;BME280;5987;53.140;8.904;2023-04-01T06:19:04;99573.50;;;8.38;100.00
11856;BME280;5987;53.140;8.904;2023-04-01T06:22:43;99575.03;;;8.43;100.00
11856;BME280;5987;53.140;8.904;2023-04-01T06:26:07;99578.56;;;8.41;100.00
11856;BME280;5987;53.140;8.904;2023-04-01T06:29:45;99577.03;;;8.56;100.00
11856;BME280;5987;53.140;8.904;2023-04-01T06:33:17;99582.94;;;8.60;100.00
11856;BME280;5987;53.140;8.904;2023-04-01T06:36:45;99589.72;;;8.64;100.00
11856;BME280;5987;53.140;8.904;2023-04-01T06:40:22;99596.06;;;8.78;100.00
11856;BME280;5987;53.140;8.904;2023-04-01T06:43:46;99591.34;;;8.67;100.00
11856;BME280;5987;53.140;8.904;2023-04-01T06:47:00;99598.19;;;8.69;100.00
11856;BME280;5987;53.140;8.904;2023-04-01T06:50:19;99601.72;;;8.68;100.00
11856;BME280;5987;53.140;8.904;2023-04-01T06:53:33;99599.88;;;8.70;100.00
11856;BME280;5987;53.140;8.904;2023-04-01T06:56:45;99609.91;;;8.80;100.00
11856;BME280;5987;53.140;8.904;2023-04-01T06:59:54;99606.88;;;8.70;100.00
11856;BME280;5987;53.140;8.904;2023-04-01T07:03:13;99613.19;;;8.66;100.00
11856;BME280;5987;53.140;8.904;2023-04-01T07:06:29;99617.59;;;8.65;100.00
11856;BME280;5987;53.140;8.904;2023-04-01T07:09:40;99621.91;;;8.84;100.00
11856;BME280;5987;53.140;8.904;2023-04-01T07:12:51;99618.81;;;8.75;100.00
11856;BME280;5987;53.140;8.904;2023-04-01T07:16:09;99624.28;;;8.88;100.00
11856;BME280;5987;53.140;8.904;2023-04-01T07:19:22;99629.28;;;8.75;100.00
11856;BME280;5987;53.140;8.904;2023-04-01T07:22:33;99635.00;;;8.84;100.00
11856;BME280;5987;53.140;8.904;2023-04-01T07:25:42;99638.91;;;8.75;100.00
11856;BME280;5987;53.140;8.904;2023-04-01T07:28:48;99642.06;;;8.82;100.00
11856;BME280;5987;53.140;8.904;2023-04-01T07:32:17;99649.38;;;8.75;100.00
11856;BME280;5987;53.140;8.904;2023-04-01T07:35:29;99652.81;;;8.95;100.00
11856;BME280;5987;53.140;8.904;2023-04-01T07:38:51;99655.94;;;9.01;100.00
11856;BME280;5987;53.140;8.904;2023-04-01T07:42:04;99663.88;;;9.00;100.00
11856;BME280;5987;53.140;8.904;2023-04-01T07:45:22;99662.88;;;9.02;100.00
11856;BME280;5987;53.140;8.904;2023-04-01T07:48:38;99668.91;;;9.04;100.00
11856;BME280;5987;53.140;8.904;2023-04-01T07:51:53;99671.22;;;8.93;100.00
11856;BME280;5987;53.140;8.904;2023-04-01T07:55:10;99671.25;;;8.91;100.00
11856;BME280;5987;53.140;8.904;2023-04-01T07:58:25;99681.28;;;9.01;100.00
11856;BME280;5987;53.140;8.904;2023-04-01T08:01:45;99684.31;;;9.10;100.00
11856;BME280;5987;53.140;8.904;2023-04-01T08:05:04;99685.63;;;9.19;100.00
11856;BME280;5987;53.140;8.904;2023-04-01T08:08:19;99687.09;;;9.42;100.00
11856;BME280;5987;53.140;8.904;2023-04-01T08:11:41;99692.47;;;9.22;100.00
11856;BME280;5987;53.140;8.904;2023-04-01T08:15:05;99698.63;;;9.21;100.00
11856;BME280;5987;53.140;8.904;2023-04-01T08:18:26;99697.56;;;9.25;100.00
11856;BME280;5987;53.140;8.904;2023-04-01T08:21:41;99706.50;;;9.21;100.00
11856;BME280;5987;53.140;8.904;2023-04-01T08:24:48;99710.66;;;9.25;100.00
11856;BME280;5987;53.140;8.904;2023-04-01T08:28:00;99713.91;;;9.30;100.00
11856;BME280;5987;53.140;8.904;2023-04-01T08:31:13;99722.34;;;9.18;100.00
11856;BME280;5987;53.140;8.904;2023-04-01T08:34:24;99726.91;;;9.32;100.00
11856;BME280;5987;53.140;8.904;2023-04-01T08:37:35;99725.44;;;9.43;100.00
11856;BME280;5987;53.140;8.904;2023-04-01T08:41:29;99724.22;;;9.33;100.00
11856;BME280;5987;53.140;8.904;2023-04-01T08:49:10;99736.94;;;9.58;100.00
11856;BME280;5987;53.140;8.904;2023-04-01T08:52:34;99744.06;;;9.56;100.00
11856;BME280;5987;53.140;8.904;2023-04-01T08:55:50;99741.34;;;9.58;100.00
11856;BME280;5987;53.140;8.904;2023-04-01T09:06:38;99755.97;;;9.27;100.00
11856;BME280;5987;53.140;8.904;2023-04-01T09:10:28;99750.06;;;9.41;100.00
11856;BME280;5987;53.140;8.904;2023-04-01T09:14:19;99758.63;;;9.62;100.00
11856;BME280;5987;53.140;8.904;2023-04-01T09:25:31;99764.00;;;9.59;100.00
11856;BME280;5987;53.140;8.904;2023-04-01T09:28:49;99769.84;;;9.99;100.00
11856;BME280;5987;53.140;8.904;2023-04-01T09:32:23;99769.56;;;10.21;100.00
11856;BME280;5987;53.140;8.904;2023-04-01T09:35:39;99777.84;;;10.13;100.00
11856;BME280;5987;53.140;8.904;2023-04-01T09:38:57;99785.06;;;10.26;100.00
11856;BME280;5987;53.140;8.904;2023-04-01T09:42:41;99791.03;;;10.12;100.00
11856;BME280;5987;53.140;8.904;2023-04-01T09:46:04;99788.03;;;10.20;100.00
11856;BME280;5987;53.140;8.904;2023-04-01T09:49:45;99795.06;;;10.02;100.00
11856;BME280;5987;53.140;8.904;2023-04-01T09:53:10;99804.06;;;9.43;100.00
11856;BME280;5987;53.140;8.904;2023-04-01T09:57:11;99814.47;;;8.51;100.00
11856;BME280;5987;53.140;8.904;2023-04-01T10:00:50;99842.56;;;8.05;100.00
11856;BME280;5987;53.140;8.904;2023-04-01T10:04:30;99857.06;;;7.92;100.00
11856;BME280;5987;53.140;8.904;2023-04-01T10:08:10;99858.88;;;7.69;100.00
11856;BME280;5987;53.140;8.904;2023-04-01T10:12:02;99871.44;;;7.59;100.00
11856;BME280;5987;53.140;8.904;2023-04-01T10:19:53;99886.13;;;7.39;100.00
11856;BME280;5987;53.140;8.904;2023-04-01T10:23:21;99895.13;;;7.32;100.00
11856;BME280;5987;53.140;8.904;2023-04-01T10:34:55;99904.28;;;7.20;100.00
11856;BME280;5987;53.140;8.904;2023-04-01T10:38:28;99911.63;;;7.11;100.00
11856;BME280;5987;53.140;8.904;2023-04-01T10:46:30;99916.97;;;7.08;100.00
11856;BME280;5987;53.140;8.904;2023-04-01T10:50:17;99927.34;;;7.09;100.00
11856;BME280;5987;53.140;8.904;2023-04-01T10:53:45;99926.72;;;7.02;100.00
11856;BME280;5987;53.140;8.904;2023-04-01T10:57:02;99933.84;;;6.97;100.00
11856;BME280;5987;53.140;8.904;2023-04-01T11:01:16;99943.09;;;6.82;100.00
11856;BME280;5987;53.140;8.904;2023-04-01T11:09:19;99955.38;;;6.79;100.00
11856;BME280;5987;53.140;8.904;2023-04-01T11:13:11;99958.94;;;6.76;100.00
11856;BME280;5987;53.140;8.904;2023-04-01T11:20:55;99969.84;;;6.87;100.00
11856;BME280;5987;53.140;8.904;2023-04-01T11:24:51;99975.78;;;6.93;100.00
11856;BME280;5987;53.140;8.904;2023-04-01T11:28:37;99980.09;;;6.94;100.00
11856;BME280;5987;53.140;8.904;2023-04-01T11:31:57;99984.19;;;6.76;100.00
11856;BME280;5987;53.140;8.904;2023-04-01T11:35:25;99990.38;;;6.73;100.00
11856;BME280;5987;53.140;8.904;2023-04-01T11:39:14;99995.22;;;6.84;100.00
11856;BME280;5987;53.140;8.904;2023-04-01T11:42:38;99999.78;;;7.02;100.00
11856;BME280;5987;53.140;8.904;2023-04-01T11:45:51;99998.50;;;6.89;100.00
11856;BME280;5987;53.140;8.904;2023-04-01T11:49:21;100007.44;;;6.82;100.00
11856;BME280;5987;53.140;8.904;2023-04-01T11:53:02;100018.72;;;6.84;100.00
11856;BME280;5987;53.140;8.904;2023-04-01T11:56:26;100027.84;;;6.70;100.00
11856;BME280;5987;53.140;8.904;2023-04-01T12:07:23;100043.16;;;6.55;100.00
11856;BME280;5987;53.140;8.904;2023-04-01T12:10:39;100054.25;;;6.61;100.00
11856;BME280;5987;53.140;8.904;2023-04-01T12:13:55;100054.25;;;6.61;100.00
11856;BME280;5987;53.140;8.904;2023-04-01T12:17:13;100067.41;;;6.58;100.00
11856;BME280;5987;53.140;8.904;2023-04-01T12:20:38;100065.19;;;6.46;100.00
11856;BME280;5987;53.140;8.904;2023-04-01T12:24:32;100080.41;;;6.60;100.00
11856;BME280;5987;53.140;8.904;2023-04-01T12:27:45;100084.78;;;6.58;100.00
11856;BME280;5987;53.140;8.904;2023-04-01T12:31:12;100088.34;;;6.55;100.00
11856;BME280;5987;53.140;8.904;2023-04-01T12:34:48;100091.88;;;6.54;100.00
11856;BME280;5987;53.140;8.904;2023-04-01T12:38:21;100100.69;;;6.50;100.00
11856;BME280;5987;53.140;8.904;2023-04-01T12:41:37;100095.94;;;6.63;100.00
11856;BME280;5987;53.140;8.904;2023-04-01T12:45:27;100094.28;;;6.60;100.00
11856;BME280;5987;53.140;8.904;2023-04-01T12:49:20;100097.78;;;6.59;100.00
11856;BME280;5987;53.140;8.904;2023-04-01T12:52:49;100112.09;;;6.74;100.00
11856;BME280;5987;53.140;8.904;2023-04-01T12:56:02;100127.25;;;6.90;100.00
11856;BME280;5987;53.140;8.904;2023-04-01T12:59:35;100125.38;;;6.66;100.00
11856;BME280;5987;53.140;8.904;2023-04-01T13:03:00;100126.03;;;6.73;100.00
11856;BME280;5987;53.140;8.904;2023-04-01T13:06:42;100146.66;;;6.54;100.00
11856;BME280;5987;53.140;8.904;2023-04-01T13:10:03;100140.59;;;6.52;100.00
11856;BME280;5987;53.140;8.904;2023-04-01T13:13:44;100153.31;;;6.63;100.00
11856;BME280;5987;53.140;8.904;2023-04-01T13:16:58;100160.63;;;6.51;100.00
11856;BME280;5987;53.140;8.904;2023-04-01T13:20:16;100170.28;;;6.48;100.00
11856;BME280;5987;53.140;8.904;2023-04-01T13:23:42;100161.47;;;6.52;100.00
11856;BME280;5987;53.140;8.904;2023-04-01T13:27:01;100171.19;;;6.47;100.00
11856;BME280;5987;53.140;8.904;2023-04-01T13:30:24;100178.47;;;6.35;100.00
11856;BME280;5987;53.140;8.904;2023-04-01T13:33:43;100170.59;;;6.39;100.00
11856;BME280;5987;53.140;8.904;2023-04-01T13:37:07;100184.66;;;6.33;100.00
11856;BME280;5987;53.140;8.904;2023-04-01T13:40:33;100184.19;;;6.48;100.00
11856;BME280;5987;53.140;8.904;2023-04-01T13:43:48;100192.47;;;6.33;100.00
11856;BME280;5987;53.140;8.904;2023-04-01T13:47:32;100195.84;;;6.37;100.00
11856;BME280;5987;53.140;8.904;2023-04-01T13:51:20;100212.31;;;6.39;100.00
11856;BME280;5987;53.140;8.904;2023-04-01T13:55:09;100220.13;;;6.39;100.00
11856;BME280;5987;53.140;8.904;2023-04-01T13:58:48;100223.28;;;6.50;100.00
11856;BME280;5987;53.140;8.904;2023-04-01T14:02:15;100228.22;;;6.29;100.00
11856;BME280;5987;53.140;8.904;2023-04-01T14:05:44;100243.94;;;6.26;100.00
11856;BME280;5987;53.140;8.904;2023-04-01T14:09:28;100245.94;;;6.16;100.00
11856;BME280;5987;53.140;8.904;2023-04-01T14:12:44;100248.06;;;6.33;100.00
11856;BME280;5987;53.140;8.904;2023-04-01T14:16:21;100254.38;;;6.56;100.00
11856;BME280;5987;53.140;8.904;2023-04-01T14:20:02;100257.59;;;6.03;100.00
11856;BME280;5987;53.140;8.904;2023-04-01T14:23:37;100260.34;;;5.98;100.00
11856;BME280;5987;53.140;8.904;2023-04-01T14:27:25;100263.66;;;6.05;100.00
11856;BME280;5987;53.140;8.904;2023-04-01T14:30:45;100281.00;;;6.06;100.00
11856;BME280;5987;53.140;8.904;2023-04-01T14:34:10;100283.84;;;5.95;100.00
11856;BME280;5987;53.140;8.904;2023-04-01T14:38:02;100301.34;;;5.90;100.00
11856;BME280;5987;53.140;8.904;2023-04-01T14:41:26;100301.25;;;5.93;100.00
11856;BME280;5987;53.140;8.904;2023-04-01T14:45:34;100306.56;;;5.90;100.00
11856;BME280;5987;53.140;8.904;2023-04-01T14:48:51;100311.06;;;5.85;100.00
11856;BME280;5987;53.140;8.904;2023-04-01T14:52:09;100323.50;;;5.72;100.00
11856;BME280;5987;53.140;8.904;2023-04-01T14:55:31;100326.22;;;5.67;100.00
11856;BME280;5987;53.140;8.904;2023-04-01T14:58:45;100335.09;;;5.60;100.00
11856;BME280;5987;53.140;8.904;2023-04-01T15:02:00;100343.88;;;5.56;100.00
11856;BME280;5987;53.140;8.904;2023-04-01T15:05:16;100337.75;;;5.59;100.00
11856;BME280;5987;53.140;8.904;2023-04-01T15:08:29;100352.69;;;5.50;100.00
11856;BME280;5987;53.140;8.904;2023-04-01T15:11:57;100350.03;;;5.52;100.00
11856;BME280;5987;53.140;8.904;2023-04-01T15:15:28;100352.81;;;5.46;100.00
11856;BME280;5987;53.140;8.904;2023-04-01T15:18:45;100369.13;;;5.53;100.00
11856;BME280;5987;53.140;8.904;2023-04-01T15:22:15;100373.56;;;5.49;100.00
11856;BME280;5987;53.140;8.904;2023-04-01T15:25:49;100380.50;;;5.50;100.00
11856;BME280;5987;53.140;8.904;2023-04-01T15:29:23;100389.22;;;5.47;100.00
11856;BME280;5987;53.140;8.904;2023-04-01T15:32:45;100390.94;;;5.47;100.00
11856;BME280;5987;53.140;8.904;2023-04-01T15:36:02;100401.44;;;5.44;100.00
11856;BME280;5987;53.140;8.904;2023-04-01T15:39:15;100399.81;;;5.38;100.00
11856;BME280;5987;53.140;8.904;2023-04-01T15:42:41;100406.88;;;5.35;100.00
11856;BME280;5987;53.140;8.904;2023-04-01T15:45:58;100413.91;;;5.29;100.00
11856;BME280;5987;53.140;8.904;2023-04-01T15:49:28;100427.00;;;5.26;100.00
11856;BME280;5987;53.140;8.904;2023-04-01T15:52:42;100424.31;;;5.29;100.00
11856;BME280;5987;53.140;8.904;2023-04-01T15:55:53;100433.94;;;5.26;100.00
11856;BME280;5987;53.140;8.904;2023-04-01T15:59:18;100445.19;;;5.28;100.00
11856;BME280;5987;53.140;8.904;2023-04-01T16:02:33;100444.34;;;5.26;100.00
11856;BME280;5987;53.140;8.904;2023-04-01T16:05:56;100447.94;;;5.20;100.00
11856;BME280;5987;53.140;8.904;2023-04-01T16:09:28;100465.16;;;5.27;100.00
11856;BME280;5987;53.140;8.904;2023-04-01T16:12:56;100460.09;;;5.20;100.00
11856;BME280;5987;53.140;8.904;2023-04-01T16:16:14;100471.31;;;5.23;100.00
11856;BME280;5987;53.140;8.904;2023-04-01T16:19:41;100479.16;;;5.20;100.00
11856;BME280;5987;53.140;8.904;2023-04-01T16:22:58;100492.19;;;5.20;100.00
11856;BME280;5987;53.140;8.904;2023-04-01T16:26:09;100490.50;;;5.19;100.00
11856;BME280;5987;53.140;8.904;2023-04-01T16:29:27;100494.13;;;5.09;100.00
11856;BME280;5987;53.140;8.904;2023-04-01T16:32:41;100507.94;;;5.14;100.00
11856;BME280;5987;53.140;8.904;2023-04-01T16:35:57;100504.44;;;5.15;100.00
11856;BME280;5987;53.140;8.904;2023-04-01T16:39:27;100513.19;;;5.11;100.00
11856;BME280;5987;53.140;8.904;2023-04-01T16:42:40;100525.19;;;5.18;100.00
11856;BME280;5987;53.140;8.904;2023-04-01T16:46:07;100539.13;;;5.15;100.00
11856;BME280;5987;53.140;8.904;2023-04-01T16:49:30;100540.03;;;5.13;100.00
11856;BME280;5987;53.140;8.904;2023-04-01T16:52:55;100554.09;;;5.04;100.00
11856;BME280;5987;53.140;8.904;2023-04-01T16:56:11;100562.03;;;4.96;100.00
11856;BME280;5987;53.140;8.904;2023-04-01T16:59:24;100567.25;;;4.95;100.00
11856;BME280;5987;53.140;8.904;2023-04-01T17:02:35;100585.44;;;4.98;100.00
11856;BME280;5987;53.140;8.904;2023-04-01T17:05:52;100582.94;;;4.90;100.00
11856;BME280;5987;53.140;8.904;2023-04-01T17:09:20;100595.13;;;4.88;100.00
11856;BME280;5987;53.140;8.904;2023-04-01T17:12:37;100602.94;;;4.88;100.00
11856;BME280;5987;53.140;8.904;2023-04-01T17:15:58;100609.97;;;4.83;100.00
11856;BME280;5987;53.140;8.904;2023-04-01T17:19:17;100606.56;;;4.78;100.00
11856;BME280;5987;53.140;8.904;2023-04-01T17:22:33;100617.00;;;4.76;100.00
11856;BME280;5987;53.140;8.904;2023-04-01T17:26:10;100624.81;;;4.75;100.00
11856;BME280;5987;53.140;8.904;2023-04-01T17:29:31;100643.78;;;4.83;100.00
11856;BME280;5987;53.140;8.904;2023-04-01T17:32:50;100653.53;;;4.69;100.00
11856;BME280;5987;53.140;8.904;2023-04-01T17:35:59;100648.47;;;4.59;100.00
11856;BME280;5987;53.140;8.904;2023-04-01T17:39:27;100670.16;;;4.60;100.00
11856;BME280;5987;53.140;8.904;2023-04-01T17:42:43;100665.75;;;4.63;100.00
11856;BME280;5987;53.140;8.904;2023-04-01T17:46:11;100676.28;;;4.56;100.00
11856;BME280;5987;53.140;8.904;2023-04-01T17:49:35;100685.00;;;4.52;100.00
11856;BME280;5987;53.140;8.904;2023-04-01T17:52:48;100684.19;;;4.46;100.00
11856;BME280;5987;53.140;8.904;2023-04-01T17:56:07;100684.28;;;4.42;100.00
11856;BME280;5987;53.140;8.904;2023-04-01T17:59:24;100705.00;;;4.45;100.00
11856;BME280;5987;53.140;8.904;2023-04-01T18:02:42;100704.16;;;4.46;100.00
11856;BME280;5987;53.140;8.904;2023-04-01T18:06:05;100718.06;;;4.42;100.00
11856;BME280;5987;53.140;8.904;2023-04-01T18:09:26;100728.47;;;4.40;100.00
11856;BME280;5987;53.140;8.904;2023-04-01T18:12:51;100732.81;;;4.40;100.00
11856;BME280;5987;53.140;8.904;2023-04-01T18:16:18;100750.97;;;4.41;100.00
11856;BME280;5987;53.140;8.904;2023-04-01T18:19:38;100756.16;;;4.43;100.00
11856;BME280;5987;53.140;8.904;2023-04-01T18:22:55;100770.00;;;4.45;100.00
11856;BME280;5987;53.140;8.904;2023-04-01T18:26:08;100770.09;;;4.39;100.00
11856;BME280;5987;53.140;8.904;2023-04-01T18:29:31;100782.25;;;4.35;100.00
11856;BME280;5987;53.140;8.904;2023-04-01T18:32:48;100793.63;;;4.26;100.00